Appling, Georgia
Current Conditions -  °F | °C
As of 5:35 AM on Thursday 27 Nov 2014 (Local Time) from KHQU Reporting Station
Clear Clear  
Wind Chill: 40°   Ceiling: Unl
Heat Index: 43°   Visibility: 10mi
Dew Point: 37°   Wind: 5mph
Humidity: 80%   Direction: 250°WSW
Pressure: 30.14"   Gusts: NA
Location:  33.55°N, 82.32°W
Report Text: KHQU 271035Z AUTO 25004KT 10SM CLR 06/03 A3014 RMK AO1 T00590027
Loading
Personal Weather Stations






























Interactive Weather Map New forecast layout! Learn more

10-Day Weather Forecast

Advertisements
Track Severe Weather on mobile